sensor_id;sensor_type;location;lat;lon;timestamp;P1;durP1;ratioP1;P2;durP2;ratioP2
31454;SDS011;18084;53.028;8.834;2022-09-09T00:00:06;49.95;;;30.52;;
31454;SDS011;18084;53.028;8.834;2022-09-09T00:02:47;62.28;;;34.13;;
31454;SDS011;18084;53.028;8.834;2022-09-09T01:47:03;40.85;;;27.20;;
31454;SDS011;18084;53.028;8.834;2022-09-09T01:49:30;37.58;;;26.13;;
31454;SDS011;18084;53.028;8.834;2022-09-09T01:52:15;40.92;;;28.02;;
31454;SDS011;18084;53.028;8.834;2022-09-09T06:15:34;6.78;;;4.80;;
31454;SDS011;18084;53.028;8.834;2022-09-09T06:18:14;5.45;;;4.25;;
31454;SDS011;18084;53.028;8.834;2022-09-09T06:24:03;6.50;;;4.13;;
31454;SDS011;18084;53.028;8.834;2022-09-09T06:26:58;5.70;;;3.85;;
31454;SDS011;18084;53.028;8.834;2022-09-09T06:29:56;8.27;;;3.25;;
31454;SDS011;18084;53.028;8.834;2022-09-09T06:33:02;11.30;;;3.70;;
31454;SDS011;18084;53.028;8.834;2022-09-09T06:35:53;6.95;;;2.80;;
31454;SDS011;18084;53.028;8.834;2022-09-09T06:38:45;5.18;;;3.05;;
31454;SDS011;18084;53.028;8.834;2022-09-09T06:41:24;3.53;;;2.75;;
31454;SDS011;18084;53.028;8.834;2022-09-09T06:44:14;4.75;;;2.83;;
31454;SDS011;18084;53.028;8.834;2022-09-09T06:46:40;3.85;;;3.22;;
31454;SDS011;18084;53.028;8.834;2022-09-09T06:49:09;4.65;;;3.50;;
31454;SDS011;18084;53.028;8.834;2022-09-09T06:51:35;5.20;;;3.30;;
31454;SDS011;18084;53.028;8.834;2022-09-09T06:54:07;7.50;;;4.30;;
31454;SDS011;18084;53.028;8.834;2022-09-09T06:56:34;9.52;;;3.88;;
31454;SDS011;18084;53.028;8.834;2022-09-09T06:59:03;9.05;;;3.53;;
31454;SDS011;18084;53.028;8.834;2022-09-09T07:01:34;5.60;;;3.67;;
31454;SDS011;18084;53.028;8.834;2022-09-09T07:04:01;6.30;;;3.85;;
31454;SDS011;18084;53.028;8.834;2022-09-09T07:06:33;3.47;;;2.60;;
31454;SDS011;18084;53.028;8.834;2022-09-09T07:09:04;5.38;;;2.45;;
31454;SDS011;18084;53.028;8.834;2022-09-09T07:11:32;4.65;;;2.38;;
31454;SDS011;18084;53.028;8.834;2022-09-09T07:14:02;3.75;;;2.20;;
31454;SDS011;18084;53.028;8.834;2022-09-09T07:16:30;5.93;;;2.10;;
31454;SDS011;18084;53.028;8.834;2022-09-09T07:18:58;9.00;;;2.75;;
31454;SDS011;18084;53.028;8.834;2022-09-09T07:21:24;5.68;;;2.00;;
31454;SDS011;18084;53.028;8.834;2022-09-09T07:23:54;4.72;;;2.33;;
31454;SDS011;18084;53.028;8.834;2022-09-09T07:26:21;3.80;;;1.90;;
31454;SDS011;18084;53.028;8.834;2022-09-09T07:28:49;6.68;;;2.30;;
31454;SDS011;18084;53.028;8.834;2022-09-09T07:33:48;5.22;;;2.00;;
31454;SDS011;18084;53.028;8.834;2022-09-09T07:36:22;8.40;;;2.00;;
31454;SDS011;18084;53.028;8.834;2022-09-09T07:39:00;6.57;;;2.15;;
31454;SDS011;18084;53.028;8.834;2022-09-09T07:41:38;3.97;;;1.63;;
31454;SDS011;18084;53.028;8.834;2022-09-09T07:44:15;3.33;;;1.80;;
31454;SDS011;18084;53.028;8.834;2022-09-09T07:46:46;5.05;;;1.90;;
31454;SDS011;18084;53.028;8.834;2022-09-09T07:49:12;3.75;;;1.63;;
31454;SDS011;18084;53.028;8.834;2022-09-09T07:51:40;5.22;;;2.03;;
31454;SDS011;18084;53.028;8.834;2022-09-09T07:54:13;4.78;;;1.55;;
31454;SDS011;18084;53.028;8.834;2022-09-09T07:56:42;3.38;;;1.45;;
31454;SDS011;18084;53.028;8.834;2022-09-09T07:59:17;5.07;;;1.50;;
31454;SDS011;18084;53.028;8.834;2022-09-09T08:01:52;3.65;;;1.58;;
31454;SDS011;18084;53.028;8.834;2022-09-09T08:04:21;3.60;;;1.67;;
31454;SDS011;18084;53.028;8.834;2022-09-09T08:06:57;8.02;;;1.80;;
31454;SDS011;18084;53.028;8.834;2022-09-09T08:09:25;2.28;;;1.27;;
31454;SDS011;18084;53.028;8.834;2022-09-09T08:11:53;4.82;;;1.60;;
31454;SDS011;18084;53.028;8.834;2022-09-09T08:14:23;3.63;;;1.60;;
31454;SDS011;18084;53.028;8.834;2022-09-09T08:16:49;3.63;;;1.42;;
31454;SDS011;18084;53.028;8.834;2022-09-09T08:19:18;4.03;;;1.33;;
31454;SDS011;18084;53.028;8.834;2022-09-09T08:21:44;3.28;;;1.35;;
31454;SDS011;18084;53.028;8.834;2022-09-09T08:24:10;3.10;;;1.30;;
31454;SDS011;18084;53.028;8.834;2022-09-09T08:26:38;3.90;;;1.45;;
31454;SDS011;18084;53.028;8.834;2022-09-09T08:32:38;3.30;;;1.10;;
31454;SDS011;18084;53.028;8.834;2022-09-09T08:38:28;5.88;;;2.17;;
31454;SDS011;18084;53.028;8.834;2022-09-09T08:41:02;3.47;;;1.70;;
31454;SDS011;18084;53.028;8.834;2022-09-09T08:43:45;3.85;;;1.50;;
31454;SDS011;18084;53.028;8.834;2022-09-09T08:46:21;5.78;;;1.95;;
31454;SDS011;18084;53.028;8.834;2022-09-09T08:50:06;6.68;;;1.40;;
31454;SDS011;18084;53.028;8.834;2022-09-09T08:58:45;4.40;;;1.33;;
31454;SDS011;18084;53.028;8.834;2022-09-09T09:01:46;3.65;;;1.40;;
31454;SDS011;18084;53.028;8.834;2022-09-09T09:08:03;3.50;;;1.38;;
31454;SDS011;18084;53.028;8.834;2022-09-09T09:10:53;6.45;;;1.60;;
31454;SDS011;18084;53.028;8.834;2022-09-09T09:16:13;5.38;;;1.50;;
31454;SDS011;18084;53.028;8.834;2022-09-09T09:19:32;5.03;;;1.17;;
31454;SDS011;18084;53.028;8.834;2022-09-09T09:25:15;7.32;;;1.50;;
31454;SDS011;18084;53.028;8.834;2022-09-09T09:31:05;2.55;;;1.45;;
31454;SDS011;18084;53.028;8.834;2022-09-09T09:36:06;3.15;;;1.13;;
31454;SDS011;18084;53.028;8.834;2022-09-09T09:38:36;3.65;;;1.30;;
31454;SDS011;18084;53.028;8.834;2022-09-09T09:41:02;4.10;;;1.15;;
31454;SDS011;18084;53.028;8.834;2022-09-09T09:43:29;4.90;;;1.27;;
31454;SDS011;18084;53.028;8.834;2022-09-09T09:49:04;6.28;;;1.55;;
31454;SDS011;18084;53.028;8.834;2022-09-09T09:51:34;2.90;;;1.30;;
31454;SDS011;18084;53.028;8.834;2022-09-09T09:56:53;5.80;;;1.95;;
31454;SDS011;18084;53.028;8.834;2022-09-09T09:59:31;11.68;;;2.42;;
31454;SDS011;18084;53.028;8.834;2022-09-09T10:02:20;5.57;;;2.30;;
31454;SDS011;18084;53.028;8.834;2022-09-09T10:18:54;10.77;;;2.08;;
31454;SDS011;18084;53.028;8.834;2022-09-09T10:21:39;5.35;;;2.10;;
31454;SDS011;18084;53.028;8.834;2022-09-09T10:24:22;4.82;;;2.28;;
31454;SDS011;18084;53.028;8.834;2022-09-09T10:27:05;8.93;;;2.40;;
31454;SDS011;18084;53.028;8.834;2022-09-09T10:38:39;6.60;;;2.53;;
31454;SDS011;18084;53.028;8.834;2022-09-09T10:41:21;3.60;;;2.25;;
31454;SDS011;18084;53.028;8.834;2022-09-09T10:47:17;6.07;;;2.28;;
31454;SDS011;18084;53.028;8.834;2022-09-09T10:57:32;8.77;;;2.63;;
31454;SDS011;18084;53.028;8.834;2022-09-09T11:00:04;7.50;;;2.65;;
31454;SDS011;18084;53.028;8.834;2022-09-09T11:02:33;6.38;;;2.15;;
31454;SDS011;18084;53.028;8.834;2022-09-09T11:05:03;9.38;;;2.20;;
31454;SDS011;18084;53.028;8.834;2022-09-09T11:07:40;4.68;;;1.50;;
31454;SDS011;18084;53.028;8.834;2022-09-09T11:10:15;5.85;;;2.15;;
31454;SDS011;18084;53.028;8.834;2022-09-09T11:13:05;5.65;;;1.73;;
31454;SDS011;18084;53.028;8.834;2022-09-09T11:15:49;6.20;;;2.10;;
31454;SDS011;18084;53.028;8.834;2022-09-09T11:18:19;5.63;;;1.90;;
31454;SDS011;18084;53.028;8.834;2022-09-09T11:20:50;8.45;;;1.80;;
31454;SDS011;18084;53.028;8.834;2022-09-09T11:23:22;6.80;;;1.88;;
31454;SDS011;18084;53.028;8.834;2022-09-09T11:25:58;4.32;;;1.48;;
31454;SDS011;18084;53.028;8.834;2022-09-09T11:28:34;6.35;;;1.50;;
31454;SDS011;18084;53.028;8.834;2022-09-09T11:33:58;5.28;;;1.88;;
31454;SDS011;18084;53.028;8.834;2022-09-09T11:36:37;6.00;;;2.13;;
31454;SDS011;18084;53.028;8.834;2022-09-09T11:42:07;5.55;;;2.33;;
31454;SDS011;18084;53.028;8.834;2022-09-09T11:44:41;5.50;;;2.30;;
31454;SDS011;18084;53.028;8.834;2022-09-09T11:47:50;7.53;;;2.28;;
31454;SDS011;18084;53.028;8.834;2022-09-09T11:52:40;10.82;;;1.98;;
31454;SDS011;18084;53.028;8.834;2022-09-09T11:55:32;8.90;;;2.35;;
31454;SDS011;18084;53.028;8.834;2022-09-09T11:58:02;7.28;;;1.92;;
31454;SDS011;18084;53.028;8.834;2022-09-09T12:02:57;9.05;;;2.65;;
31454;SDS011;18084;53.028;8.834;2022-09-09T12:05:23;9.18;;;2.67;;
31454;SDS011;18084;53.028;8.834;2022-09-09T12:08:01;9.10;;;2.50;;
31454;SDS011;18084;53.028;8.834;2022-09-09T12:10:32;7.40;;;2.47;;
31454;SDS011;18084;53.028;8.834;2022-09-09T12:15:47;10.65;;;4.90;;
31454;SDS011;18084;53.028;8.834;2022-09-09T12:18:15;15.48;;;6.15;;
31454;SDS011;18084;53.028;8.834;2022-09-09T12:23:45;18.38;;;4.63;;
31454;SDS011;18084;53.028;8.834;2022-09-09T12:26:32;14.27;;;3.63;;
31454;SDS011;18084;53.028;8.834;2022-09-09T12:31:41;9.27;;;3.53;;
31454;SDS011;18084;53.028;8.834;2022-09-09T12:34:24;13.52;;;4.25;;
31454;SDS011;18084;53.028;8.834;2022-09-09T12:37:06;14.75;;;5.25;;
31454;SDS011;18084;53.028;8.834;2022-09-09T12:39:45;9.70;;;6.15;;
31454;SDS011;18084;53.028;8.834;2022-09-09T12:42:20;18.08;;;7.22;;
31454;SDS011;18084;53.028;8.834;2022-09-09T12:47:24;15.98;;;7.85;;
31454;SDS011;18084;53.028;8.834;2022-09-09T12:50:11;12.80;;;6.07;;
31454;SDS011;18084;53.028;8.834;2022-09-09T12:52:41;12.35;;;6.20;;
31454;SDS011;18084;53.028;8.834;2022-09-09T12:55:07;11.15;;;5.60;;
31454;SDS011;18084;53.028;8.834;2022-09-09T12:57:43;12.60;;;5.68;;
31454;SDS011;18084;53.028;8.834;2022-09-09T13:02:53;10.85;;;5.70;;
31454;SDS011;18084;53.028;8.834;2022-09-09T13:05:25;12.25;;;6.32;;
31454;SDS011;18084;53.028;8.834;2022-09-09T13:08:02;17.17;;;4.80;;
31454;SDS011;18084;53.028;8.834;2022-09-09T13:10:30;9.60;;;4.47;;
31454;SDS011;18084;53.028;8.834;2022-09-09T13:12:59;14.00;;;4.43;;
31454;SDS011;18084;53.028;8.834;2022-09-09T13:17:54;11.70;;;4.85;;
31454;SDS011;18084;53.028;8.834;2022-09-09T13:20:25;15.63;;;5.00;;
31454;SDS011;18084;53.028;8.834;2022-09-09T13:27:54;8.45;;;3.13;;
31454;SDS011;18084;53.028;8.834;2022-09-09T13:30:27;13.13;;;3.85;;
31454;SDS011;18084;53.028;8.834;2022-09-09T13:35:46;7.03;;;2.60;;
31454;SDS011;18084;53.028;8.834;2022-09-09T13:38:15;10.23;;;2.83;;
31454;SDS011;18084;53.028;8.834;2022-09-09T13:40:51;7.45;;;2.70;;
31454;SDS011;18084;53.028;8.834;2022-09-09T13:43:22;6.57;;;2.10;;
31454;SDS011;18084;53.028;8.834;2022-09-09T13:46:00;3.97;;;2.05;;
31454;SDS011;18084;53.028;8.834;2022-09-09T13:48:56;11.20;;;2.72;;
31454;SDS011;18084;53.028;8.834;2022-09-09T13:54:02;6.95;;;2.13;;
31454;SDS011;18084;53.028;8.834;2022-09-09T13:56:30;10.27;;;3.75;;
31454;SDS011;18084;53.028;8.834;2022-09-09T13:58:56;6.65;;;3.15;;
31454;SDS011;18084;53.028;8.834;2022-09-09T14:01:23;8.77;;;3.05;;
31454;SDS011;18084;53.028;8.834;2022-09-09T14:03:48;9.35;;;2.80;;
31454;SDS011;18084;53.028;8.834;2022-09-09T14:06:14;9.00;;;3.50;;
31454;SDS011;18084;53.028;8.834;2022-09-09T14:11:05;6.57;;;3.45;;
31454;SDS011;18084;53.028;8.834;2022-09-09T14:13:33;11.23;;;3.95;;
31454;SDS011;18084;53.028;8.834;2022-09-09T14:18:24;9.48;;;3.72;;
31454;SDS011;18084;53.028;8.834;2022-09-09T14:23:16;10.68;;;4.20;;
31454;SDS011;18084;53.028;8.834;2022-09-09T14:28:11;10.85;;;4.32;;
31454;SDS011;18084;53.028;8.834;2022-09-09T14:30:38;13.30;;;4.43;;
31454;SDS011;18084;53.028;8.834;2022-09-09T14:33:05;13.63;;;4.88;;
31454;SDS011;18084;53.028;8.834;2022-09-09T14:35:34;7.10;;;4.50;;
31454;SDS011;18084;53.028;8.834;2022-09-09T14:38:01;8.88;;;4.72;;
31454;SDS011;18084;53.028;8.834;2022-09-09T14:40:27;13.52;;;5.72;;
31454;SDS011;18084;53.028;8.834;2022-09-09T14:45:18;10.20;;;5.88;;
31454;SDS011;18084;53.028;8.834;2022-09-09T14:47:46;8.90;;;5.75;;
31454;SDS011;18084;53.028;8.834;2022-09-09T14:52:37;8.40;;;5.70;;
31454;SDS011;18084;53.028;8.834;2022-09-09T14:57:29;12.27;;;6.43;;
31454;SDS011;18084;53.028;8.834;2022-09-09T15:02:21;7.50;;;5.00;;
31454;SDS011;18084;53.028;8.834;2022-09-09T15:07:14;12.15;;;5.38;;
31454;SDS011;18084;53.028;8.834;2022-09-09T15:09:41;8.13;;;5.95;;
31454;SDS011;18084;53.028;8.834;2022-09-09T15:14:32;7.55;;;4.88;;
31454;SDS011;18084;53.028;8.834;2022-09-09T15:19:23;13.82;;;5.80;;
31454;SDS011;18084;53.028;8.834;2022-09-09T15:24:14;11.85;;;5.47;;
31454;SDS011;18084;53.028;8.834;2022-09-09T15:26:41;10.75;;;5.90;;
31454;SDS011;18084;53.028;8.834;2022-09-09T15:31:33;11.15;;;4.50;;
31454;SDS011;18084;53.028;8.834;2022-09-09T15:36:29;9.32;;;3.80;;
31454;SDS011;18084;53.028;8.834;2022-09-09T15:39:00;5.82;;;3.83;;
31454;SDS011;18084;53.028;8.834;2022-09-09T15:41:28;8.60;;;4.13;;
31454;SDS011;18084;53.028;8.834;2022-09-09T15:43:55;9.40;;;3.80;;
31454;SDS011;18084;53.028;8.834;2022-09-09T15:46:26;12.48;;;3.80;;
31454;SDS011;18084;53.028;8.834;2022-09-09T15:49:05;6.55;;;3.30;;
31454;SDS011;18084;53.028;8.834;2022-09-09T15:51:34;7.80;;;2.92;;
31454;SDS011;18084;53.028;8.834;2022-09-09T15:54:00;6.68;;;2.80;;
31454;SDS011;18084;53.028;8.834;2022-09-09T15:58:53;6.65;;;2.55;;
31454;SDS011;18084;53.028;8.834;2022-09-09T16:01:20;6.82;;;3.42;;
31454;SDS011;18084;53.028;8.834;2022-09-09T16:06:12;8.50;;;2.50;;
31454;SDS011;18084;53.028;8.834;2022-09-09T16:08:40;10.55;;;3.05;;
31454;SDS011;18084;53.028;8.834;2022-09-09T16:11:09;9.40;;;3.60;;
31454;SDS011;18084;53.028;8.834;2022-09-09T16:13:37;7.25;;;2.90;;
31454;SDS011;18084;53.028;8.834;2022-09-09T16:16:04;6.00;;;2.38;;
31454;SDS011;18084;53.028;8.834;2022-09-09T16:18:37;7.00;;;2.35;;
31454;SDS011;18084;53.028;8.834;2022-09-09T16:21:04;5.45;;;2.20;;
31454;SDS011;18084;53.028;8.834;2022-09-09T16:23:34;7.97;;;2.70;;
31454;SDS011;18084;53.028;8.834;2022-09-09T16:26:00;10.27;;;2.50;;
31454;SDS011;18084;53.028;8.834;2022-09-09T16:28:27;6.70;;;2.60;;
31454;SDS011;18084;53.028;8.834;2022-09-09T16:33:18;3.72;;;1.80;;
31454;SDS011;18084;53.028;8.834;2022-09-09T16:38:10;5.03;;;2.00;;
31454;SDS011;18084;53.028;8.834;2022-09-09T16:40:36;4.43;;;1.98;;
31454;SDS011;18084;53.028;8.834;2022-09-09T16:43:03;8.80;;;2.60;;
31454;SDS011;18084;53.028;8.834;2022-09-09T16:45:31;9.30;;;2.90;;
31454;SDS011;18084;53.028;8.834;2022-09-09T16:47:57;8.05;;;2.22;;
31454;SDS011;18084;53.028;8.834;2022-09-09T16:52:49;3.90;;;2.03;;
31454;SDS011;18084;53.028;8.834;2022-09-09T16:55:16;6.10;;;2.42;;
31454;SDS011;18084;53.028;8.834;2022-09-09T17:00:07;5.22;;;2.83;;
31454;SDS011;18084;53.028;8.834;2022-09-09T17:02:33;4.82;;;2.53;;
31454;SDS011;18084;53.028;8.834;2022-09-09T17:07:24;4.82;;;2.30;;
31454;SDS011;18084;53.028;8.834;2022-09-09T17:12:15;4.43;;;3.00;;
31454;SDS011;18084;53.028;8.834;2022-09-09T17:14:42;8.63;;;2.85;;
31454;SDS011;18084;53.028;8.834;2022-09-09T17:19:33;27.58;;;5.40;;
31454;SDS011;18084;53.028;8.834;2022-09-09T17:24:25;9.30;;;4.40;;
31454;SDS011;18084;53.028;8.834;2022-09-09T17:26:51;11.52;;;4.43;;
31454;SDS011;18084;53.028;8.834;2022-09-09T17:31:42;12.25;;;5.32;;
31454;SDS011;18084;53.028;8.834;2022-09-09T17:36:34;22.08;;;9.73;;
31454;SDS011;18084;53.028;8.834;2022-09-09T17:41:27;12.10;;;6.32;;
31454;SDS011;18084;53.028;8.834;2022-09-09T17:44:00;26.52;;;8.05;;
31454;SDS011;18084;53.028;8.834;2022-09-09T17:46:34;15.95;;;8.20;;
31454;SDS011;18084;53.028;8.834;2022-09-09T17:49:06;51.83;;;10.25;;
31454;SDS011;18084;53.028;8.834;2022-09-09T17:51:34;33.45;;;9.02;;
31454;SDS011;18084;53.028;8.834;2022-09-09T17:54:01;15.82;;;8.98;;
31454;SDS011;18084;53.028;8.834;2022-09-09T17:56:29;19.92;;;9.73;;
31454;SDS011;18084;53.028;8.834;2022-09-09T17:58:57;13.43;;;9.57;;
31454;SDS011;18084;53.028;8.834;2022-09-09T18:01:24;15.23;;;8.80;;
31454;SDS011;18084;53.028;8.834;2022-09-09T18:03:52;19.15;;;9.20;;
31454;SDS011;18084;53.028;8.834;2022-09-09T18:06:22;16.63;;;9.25;;
31454;SDS011;18084;53.028;8.834;2022-09-09T18:08:56;14.10;;;9.23;;
31454;SDS011;18084;53.028;8.834;2022-09-09T18:11:24;29.42;;;10.68;;
31454;SDS011;18084;53.028;8.834;2022-09-09T18:13:56;25.40;;;10.27;;
31454;SDS011;18084;53.028;8.834;2022-09-09T18:16:24;26.98;;;10.57;;
31454;SDS011;18084;53.028;8.834;2022-09-09T18:18:51;17.48;;;11.50;;
31454;SDS011;18084;53.028;8.834;2022-09-09T18:23:43;13.82;;;9.07;;
31454;SDS011;18084;53.028;8.834;2022-09-09T18:26:16;19.25;;;10.07;;
31454;SDS011;18084;53.028;8.834;2022-09-09T18:28:46;18.38;;;11.80;;
31454;SDS011;18084;53.028;8.834;2022-09-09T18:31:14;21.38;;;11.88;;
31454;SDS011;18084;53.028;8.834;2022-09-09T18:33:42;15.57;;;11.23;;
31454;SDS011;18084;53.028;8.834;2022-09-09T18:36:11;22.50;;;11.20;;
31454;SDS011;18084;53.028;8.834;2022-09-09T18:38:39;21.02;;;10.98;;
31454;SDS011;18084;53.028;8.834;2022-09-09T18:41:18;20.70;;;11.40;;
31454;SDS011;18084;53.028;8.834;2022-09-09T18:43:48;24.73;;;12.10;;
31454;SDS011;18084;53.028;8.834;2022-09-09T18:46:15;21.30;;;11.40;;
31454;SDS011;18084;53.028;8.834;2022-09-09T18:48:42;23.38;;;11.73;;
31454;SDS011;18084;53.028;8.834;2022-09-09T18:51:13;23.80;;;12.80;;
31454;SDS011;18084;53.028;8.834;2022-09-09T18:53:41;23.33;;;11.60;;
31454;SDS011;18084;53.028;8.834;2022-09-09T18:56:09;19.92;;;12.30;;
31454;SDS011;18084;53.028;8.834;2022-09-09T18:58:36;24.50;;;12.52;;
31454;SDS011;18084;53.028;8.834;2022-09-09T19:03:29;25.53;;;12.70;;
31454;SDS011;18084;53.028;8.834;2022-09-09T19:06:01;19.45;;;12.07;;
31454;SDS011;18084;53.028;8.834;2022-09-09T19:08:29;20.80;;;12.25;;
31454;SDS011;18084;53.028;8.834;2022-09-09T19:13:20;24.02;;;11.75;;
31454;SDS011;18084;53.028;8.834;2022-09-09T19:18:11;16.40;;;10.18;;
31454;SDS011;18084;53.028;8.834;2022-09-09T19:23:02;17.10;;;10.18;;
31454;SDS011;18084;53.028;8.834;2022-09-09T19:25:28;21.23;;;10.15;;
31454;SDS011;18084;53.028;8.834;2022-09-09T19:27:56;18.05;;;10.65;;
31454;SDS011;18084;53.028;8.834;2022-09-09T19:30:22;20.08;;;10.75;;
31454;SDS011;18084;53.028;8.834;2022-09-09T19:32:48;20.73;;;11.40;;
31454;SDS011;18084;53.028;8.834;2022-09-09T19:35:16;20.77;;;11.73;;
31454;SDS011;18084;53.028;8.834;2022-09-09T19:37:44;15.60;;;10.43;;
31454;SDS011;18084;53.028;8.834;2022-09-09T19:42:35;18.60;;;10.38;;
31454;SDS011;18084;53.028;8.834;2022-09-09T19:47:26;15.98;;;11.05;;
31454;SDS011;18084;53.028;8.834;2022-09-09T19:52:17;16.67;;;11.18;;
31454;SDS011;18084;53.028;8.834;2022-09-09T19:57:09;12.27;;;11.07;;
31454;SDS011;18084;53.028;8.834;2022-09-09T20:02:00;15.85;;;11.25;;
31454;SDS011;18084;53.028;8.834;2022-09-09T20:06:51;11.85;;;10.77;;
31454;SDS011;18084;53.028;8.834;2022-09-09T20:09:18;14.38;;;11.88;;
31454;SDS011;18084;53.028;8.834;2022-09-09T20:12:46;17.40;;;12.10;;
31454;SDS011;18084;53.028;8.834;2022-09-09T20:16:12;17.10;;;12.80;;
31454;SDS011;18084;53.028;8.834;2022-09-09T20:19:17;27.13;;;13.98;;
31454;SDS011;18084;53.028;8.834;2022-09-09T20:22:26;15.13;;;12.75;;
31454;SDS011;18084;53.028;8.834;2022-09-09T20:52:37;17.23;;;14.25;;
31454;SDS011;18084;53.028;8.834;2022-09-09T20:55:22;20.17;;;13.40;;
31454;SDS011;18084;53.028;8.834;2022-09-09T20:57:50;22.30;;;14.88;;
31454;SDS011;18084;53.028;8.834;2022-09-09T21:00:16;20.20;;;13.90;;
31454;SDS011;18084;53.028;8.834;2022-09-09T21:05:07;18.15;;;13.10;;
31454;SDS011;18084;53.028;8.834;2022-09-09T21:09:58;13.65;;;12.27;;
31454;SDS011;18084;53.028;8.834;2022-09-09T21:12:25;16.27;;;12.40;;
31454;SDS011;18084;53.028;8.834;2022-09-09T21:17:17;19.63;;;12.75;;
31454;SDS011;18084;53.028;8.834;2022-09-09T21:22:09;14.90;;;12.55;;
31454;SDS011;18084;53.028;8.834;2022-09-09T21:24:35;17.20;;;12.73;;
31454;SDS011;18084;53.028;8.834;2022-09-09T21:27:02;17.48;;;12.60;;
31454;SDS011;18084;53.028;8.834;2022-09-09T21:31:53;18.00;;;14.80;;
31454;SDS011;18084;53.028;8.834;2022-09-09T21:34:19;19.52;;;14.98;;
31454;SDS011;18084;53.028;8.834;2022-09-09T21:39:11;18.02;;;13.15;;
31454;SDS011;18084;53.028;8.834;2022-09-09T21:44:02;12.13;;;10.88;;
31454;SDS011;18084;53.028;8.834;2022-09-09T21:46:28;15.00;;;11.23;;
31454;SDS011;18084;53.028;8.834;2022-09-09T21:51:22;18.38;;;10.13;;
31454;SDS011;18084;53.028;8.834;2022-09-09T21:53:48;18.13;;;11.35;;
31454;SDS011;18084;53.028;8.834;2022-09-09T21:58:43;15.23;;;9.98;;
31454;SDS011;18084;53.028;8.834;2022-09-09T22:01:10;13.80;;;10.43;;
31454;SDS011;18084;53.028;8.834;2022-09-09T22:03:40;17.80;;;10.52;;
31454;SDS011;18084;53.028;8.834;2022-09-09T22:06:07;14.85;;;10.45;;
31454;SDS011;18084;53.028;8.834;2022-09-09T22:08:35;14.75;;;9.85;;
31454;SDS011;18084;53.028;8.834;2022-09-09T22:13:33;10.55;;;9.65;;
31454;SDS011;18084;53.028;8.834;2022-09-09T22:16:01;16.10;;;11.75;;
31454;SDS011;18084;53.028;8.834;2022-09-09T22:18:28;13.02;;;10.90;;
31454;SDS011;18084;53.028;8.834;2022-09-09T22:20:56;9.75;;;8.48;;
31454;SDS011;18084;53.028;8.834;2022-09-09T22:23:23;13.43;;;8.07;;
31454;SDS011;18084;53.028;8.834;2022-09-09T22:28:14;8.57;;;7.35;;
31454;SDS011;18084;53.028;8.834;2022-09-09T22:33:06;15.73;;;6.95;;
31454;SDS011;18084;53.028;8.834;2022-09-09T22:35:37;9.60;;;7.35;;
31454;SDS011;18084;53.028;8.834;2022-09-09T22:38:07;8.50;;;7.18;;
31454;SDS011;18084;53.028;8.834;2022-09-09T22:40:35;13.43;;;7.53;;
31454;SDS011;18084;53.028;8.834;2022-09-09T22:43:01;8.50;;;7.32;;
31454;SDS011;18084;53.028;8.834;2022-09-09T22:47:53;12.95;;;11.45;;
31454;SDS011;18084;53.028;8.834;2022-09-09T22:52:44;9.27;;;7.53;;
31454;SDS011;18084;53.028;8.834;2022-09-09T22:55:11;11.50;;;8.63;;
31454;SDS011;18084;53.028;8.834;2022-09-09T23:00:03;11.55;;;7.30;;
31454;SDS011;18084;53.028;8.834;2022-09-09T23:02:32;8.88;;;7.00;;
31454;SDS011;18084;53.028;8.834;2022-09-09T23:07:25;15.50;;;6.50;;
31454;SDS011;18084;53.028;8.834;2022-09-09T23:12:16;10.32;;;6.60;;
31454;SDS011;18084;53.028;8.834;2022-09-09T23:14:44;14.77;;;6.78;;
31454;SDS011;18084;53.028;8.834;2022-09-09T23:19:38;13.60;;;7.18;;
31454;SDS011;18084;53.028;8.834;2022-09-09T23:24:30;14.00;;;7.10;;
31454;SDS011;18084;53.028;8.834;2022-09-09T23:29:21;16.20;;;7.25;;
31454;SDS011;18084;53.028;8.834;2022-09-09T23:34:13;9.98;;;6.95;;
31454;SDS011;18084;53.028;8.834;2022-09-09T23:39:05;10.15;;;6.47;;
31454;SDS011;18084;53.028;8.834;2022-09-09T23:41:32;8.45;;;6.38;;
31454;SDS011;18084;53.028;8.834;2022-09-09T23:43:59;11.80;;;6.72;;
31454;SDS011;18084;53.028;8.834;2022-09-09T23:46:26;16.60;;;6.80;;
31454;SDS011;18084;53.028;8.834;2022-09-09T23:48:53;11.50;;;6.82;;
31454;SDS011;18084;53.028;8.834;2022-09-09T23:51:21;17.88;;;6.63;;
31454;SDS011;18084;53.028;8.834;2022-09-09T23:53:49;13.57;;;6.43;;
31454;SDS011;18084;53.028;8.834;2022-09-09T23:56:18;9.50;;;6.22;;
